Time;durP1;ratioP1;P1;durP2;ratioP2;P2;SDS_P1;SDS_P2;PMS_P1;PMS_P2;Temp;Humidity;BMP_temperature;BMP_pressure;BME280_temperature;BME280_humidity;BME280_pressure;Samples;Min_cycle;Max_cycle;Signal;HPM_P1;HPM_P2
2021/08/13 00:00:28;;;;;;;15.07;13.67;;;;;23.60;100834.00;;;;2070768;28;20584;-53
2021/08/13 00:01:28;;;;;;;14.67;13.27;;;;;23.60;100835.00;;;;2071525;28;20233;-54
2021/08/13 00:02:29;;;;;;;14.23;12.90;;;;;23.60;100837.00;;;;2071576;28;20273;-54
2021/08/13 00:03:29;;;;;;;14.83;13.33;;;;;23.60;100847.00;;;;2070026;28;20225;-54
2021/08/13 00:04:29;;;;;;;14.87;13.47;;;;;23.60;100833.00;;;;2066446;28;20211;-54
2021/08/13 00:05:30;;;;;;;14.43;13.03;;;;;23.60;100836.00;;;;2064107;28;20222;-54
2021/08/13 00:06:30;;;;;;;13.83;12.47;;;;;23.60;100835.00;;;;2066867;28;20656;-53
2021/08/13 00:07:31;;;;;;;14.43;13.03;;;;;23.60;100851.00;;;;2065526;28;20219;-53
2021/08/13 00:08:31;;;;;;;14.27;12.90;;;;;23.60;100839.00;;;;2063386;28;20696;-53
2021/08/13 00:09:31;;;;;;;14.27;12.97;;;;;23.60;100848.00;;;;2063016;28;20582;-54
2021/08/13 00:10:32;;;;;;;13.20;11.90;;;;;23.70;100850.00;;;;2063157;28;20214;-54
2021/08/13 00:11:35;;;;;;;12.70;11.50;;;;;23.60;100843.00;;;;2063247;28;25589;-54
2021/08/13 00:12:35;;;;;;;14.40;12.90;;;;;23.60;100847.00;;;;2064269;28;20250;-54
2021/08/13 00:13:35;;;;;;;14.33;12.87;;;;;23.60;100844.00;;;;2066183;28;20214;-53
2021/08/13 00:14:36;;;;;;;13.33;12.03;;;;;23.60;100858.00;;;;2063181;28;20298;-54
2021/08/13 00:15:36;;;;;;;14.10;12.60;;;;;23.60;100852.00;;;;2063223;28;20219;-54
2021/08/13 00:16:36;;;;;;;12.03;10.93;;;;;23.60;100845.00;;;;2063233;28;20219;-54
2021/08/13 00:17:37;;;;;;;13.30;12.00;;;;;23.60;100837.00;;;;2062469;28;20211;-56
2021/08/13 00:18:37;;;;;;;13.63;11.87;;;;;23.60;100851.00;;;;2063767;28;20262;-51
2021/08/13 00:19:37;;;;;;;12.60;11.40;;;;;23.60;100846.00;;;;2066040;28;20218;-55
2021/08/13 00:20:38;;;;;;;13.43;12.13;;;;;23.60;100850.00;;;;2063408;28;20302;-55
2021/08/13 00:21:40;;;;;;;13.17;11.83;;;;;23.60;100851.00;;;;2067200;28;20219;-53
2021/08/13 00:22:40;;;;;;;13.60;12.20;;;;;23.60;100856.00;;;;2066537;28;20225;-52
2021/08/13 00:23:40;;;;;;;13.50;12.10;;;;;23.60;100859.00;;;;2063647;28;20207;-52
2021/08/13 00:24:41;;;;;;;11.43;10.43;;;;;23.60;100860.00;;;;2061907;28;20263;-56
2021/08/13 00:25:41;;;;;;;12.90;11.70;;;;;23.60;100854.00;;;;2058766;28;20736;-56
2021/08/13 00:26:41;;;;;;;12.17;11.07;;;;;23.60;100855.00;;;;2056308;28;20270;-56
2021/08/13 00:27:42;;;;;;;11.93;10.63;;;;;23.60;100855.00;;;;2055001;28;20230;-56
2021/08/13 00:28:42;;;;;;;12.33;11.23;;;;;23.60;100858.00;;;;2059284;28;20220;-54
2021/08/13 00:29:43;;;;;;;11.53;10.53;;;;;23.60;100853.00;;;;2058366;28;20253;-54
2021/08/13 00:30:43;;;;;;;12.30;11.10;;;;;23.60;100852.00;;;;2061886;28;20217;-55
2021/08/13 00:31:43;;;;;;;11.73;10.63;;;;;23.60;100858.00;;;;2067238;28;20691;-55
2021/08/13 00:32:44;;;;;;;11.97;10.77;;;;;23.60;100859.00;;;;2066812;28;20775;-55
2021/08/13 00:33:44;;;;;;;11.90;10.80;;;;;23.60;100848.00;;;;2062107;28;20221;-56
2021/08/13 00:34:44;;;;;;;12.17;11.03;;;;;23.60;100845.00;;;;2058604;28;20215;-54
2021/08/13 00:35:45;;;;;;;11.60;10.50;;;;;23.60;100848.00;;;;2057026;28;20269;-53
2021/08/13 00:36:45;;;;;;;11.33;10.23;;;;;23.60;100857.00;;;;2058666;28;21127;-54
2021/08/13 00:37:45;;;;;;;11.80;10.30;;;;;23.60;100844.00;;;;2062159;28;20278;-56
2021/08/13 00:38:46;;;;;;;11.93;10.83;;;;;23.60;100847.00;;;;2062694;28;20217;-55
2021/08/13 00:39:46;;;;;;;11.00;9.90;;;;;23.60;100852.00;;;;2054396;28;20226;-55
2021/08/13 00:40:47;;;;;;;11.70;10.57;;;;;23.60;100852.00;;;;2053912;28;20220;-56
2021/08/13 00:41:47;;;;;;;12.30;11.10;;;;;23.60;100851.00;;;;2058778;28;20222;-55
2021/08/13 00:42:48;;;;;;;11.33;10.07;;;;;23.60;100845.00;;;;2059121;28;20481;-55
2021/08/13 00:43:48;;;;;;;11.43;10.23;;;;;23.60;100852.00;;;;2061962;28;20302;-55
2021/08/13 00:44:48;;;;;;;10.23;9.30;;;;;23.60;100854.00;;;;2054569;28;20222;-54
2021/08/13 00:45:49;;;;;;;11.07;9.97;;;;;23.60;100859.00;;;;2054353;28;20254;-56
2021/08/13 00:46:49;;;;;;;13.83;10.03;;;;;23.60;100850.00;;;;2054018;28;20282;-59
2021/08/13 00:47:49;;;;;;;10.63;9.63;;;;;23.60;100861.00;;;;2057629;28;20298;-59
2021/08/13 00:48:50;;;;;;;11.20;10.10;;;;;23.60;100858.00;;;;2054065;28;20212;-58
2021/08/13 00:49:50;;;;;;;10.23;9.33;;;;;23.60;100861.00;;;;2060849;28;20214;-57
2021/08/13 00:50:51;;;;;;;10.67;9.63;;;;;23.60;100848.00;;;;2054583;28;20221;-55
2021/08/13 00:51:51;;;;;;;10.53;9.53;;;;;23.60;100852.00;;;;2058260;28;20687;-55
2021/08/13 00:52:51;;;;;;;10.57;9.57;;;;;23.60;100851.00;;;;2054036;28;20214;-53
2021/08/13 00:53:52;;;;;;;11.80;10.60;;;;;23.60;100849.00;;;;2058431;28;20218;-55
2021/08/13 00:54:52;;;;;;;10.57;9.57;;;;;23.60;100863.00;;;;2062418;28;20207;-55
2021/08/13 00:55:52;;;;;;;11.33;10.17;;;;;23.60;100855.00;;;;2054275;28;20578;-55
2021/08/13 00:56:53;;;;;;;10.43;9.53;;;;;23.60;100857.00;;;;2062201;28;20207;-54
2021/08/13 00:57:54;;;;;;;11.27;10.27;;;;;23.60;100855.00;;;;2057619;28;20218;-56
2021/08/13 00:58:54;;;;;;;10.17;9.23;;;;;23.60;100844.00;;;;2059503;28;20649;-56
2021/08/13 00:59:54;;;;;;;11.10;10.00;;;;;23.60;100855.00;;;;2062296;28;20504;-52
2021/08/13 01:00:55;;;;;;;10.10;9.10;;;;;23.60;100854.00;;;;2062013;28;20292;-55
2021/08/13 01:01:55;;;;;;;10.53;9.53;;;;;23.60;100860.00;;;;2054430;28;20212;-54
2021/08/13 01:02:55;;;;;;;10.60;9.50;;;;;23.60;100852.00;;;;2066240;28;20211;-53
2021/08/13 01:03:56;;;;;;;11.40;10.40;;;;;23.60;100865.00;;;;2070358;28;20877;-53
2021/08/13 01:04:56;;;;;;;10.37;9.40;;;;;23.60;100857.00;;;;2050197;28;21071;-52
2021/08/13 01:05:56;;;;;;;10.53;9.53;;;;;23.60;100858.00;;;;2055016;28;20615;-52
2021/08/13 01:06:57;;;;;;;10.07;9.10;;;;;23.60;100854.00;;;;2065425;28;20277;-55
2021/08/13 01:07:57;;;;;;;10.07;9.07;;;;;23.60;100865.00;;;;2062665;28;20235;-55
2021/08/13 01:08:57;;;;;;;10.33;9.33;;;;;23.60;100859.00;;;;2062634;28;20833;-55
2021/08/13 01:09:58;;;;;;;10.43;9.43;;;;;23.60;100853.00;;;;2056726;28;21073;-52
2021/08/13 01:11:08;;;;;;;9.90;8.90;;;;;23.60;100855.00;;;;2061111;28;20211;-54
2021/08/13 01:12:17;;;;;;;10.38;9.38;;;;;23.60;100858.00;;;;2061020;28;20227;-55
2021/08/13 01:13:35;;;;;;;10.38;9.35;;;;;23.60;100852.00;;;;2070214;28;20218;-52
2021/08/13 01:14:38;;;;;;;8.98;8.18;;;;;23.60;100857.00;;;;2062086;28;20211;-55
2021/08/13 01:15:58;;;;;;;9.85;8.85;;;;;23.60;100855.00;;;;2055358;28;20235;-53
2021/08/13 01:16:59;;;;;;;9.98;9.07;;;;;23.60;100850.00;;;;2050441;28;20211;-54
2021/08/13 01:18:06;;;;;;;9.80;8.90;;;;;23.60;100856.00;;;;2053914;28;20294;-56
2021/08/13 01:19:11;;;;;;;9.82;8.93;;;;;23.60;100846.00;;;;2054738;28;20227;-56
2021/08/13 01:20:11;;;;;;;10.23;9.23;;;;;23.60;100844.00;;;;2061468;28;20620;-56
2021/08/13 01:21:26;;;;;;;9.93;8.93;;;;;23.60;100849.00;;;;2061686;28;20233;-56
2021/08/13 01:22:29;;;;;;;9.50;8.60;;;;;23.60;100856.00;;;;2060916;28;20214;-56
2021/08/13 01:23:33;;;;;;;10.05;9.05;;;;;23.60;100857.00;;;;2061738;28;20319;-54
2021/08/13 01:24:34;;;;;;;9.35;8.45;;;;;23.60;100853.00;;;;2062879;28;20261;-56
2021/08/13 01:25:36;;;;;;;9.83;8.80;;;;;23.60;100857.00;;;;2065409;28;20814;-56
2021/08/13 01:26:44;;;;;;;9.85;8.88;;;;;23.60;100855.00;;;;2055848;28;20286;-55
2021/08/13 01:27:46;;;;;;;9.52;8.60;;;;;23.60;100858.00;;;;2041280;28;20228;-55
2021/08/13 01:28:52;;;;;;;8.82;8.13;;;;;23.60;100858.00;;;;2063096;28;20640;-52
2021/08/13 01:30:03;;;;;;;9.27;8.38;;;;;23.60;100864.00;;;;2076810;28;20224;-56
2021/08/13 01:31:14;;;;;;;9.45;8.45;;;;;23.60;100861.00;;;;2078200;28;20205;-54
2021/08/13 01:32:17;;;;;;;9.55;8.55;;;;;23.50;100866.00;;;;2074894;28;20502;-56
2021/08/13 01:33:17;;;;;;;8.90;8.10;;;;;23.60;100859.00;;;;2063377;28;20297;-55
2021/08/13 01:34:18;;;;;;;8.80;8.00;;;;;23.60;100859.00;;;;2068966;28;20305;-55
2021/08/13 01:35:22;;;;;;;9.47;8.60;;;;;23.60;100852.00;;;;2069092;28;20218;-56
2021/08/13 01:36:23;;;;;;;9.43;8.48;;;;;23.60;100859.00;;;;2052873;28;20466;-53
2021/08/13 01:37:23;;;;;;;9.60;8.70;;;;;23.60;100848.00;;;;2055468;28;20214;-54
2021/08/13 01:38:27;;;;;;;8.80;8.00;;;;;23.60;100850.00;;;;2065775;28;20313;-53
2021/08/13 01:39:30;;;;;;;8.60;7.80;;;;;23.60;100854.00;;;;2082568;28;20233;-56
2021/08/13 01:40:30;;;;;;;8.80;8.07;;;;;23.60;100858.00;;;;2072729;28;20205;-54
2021/08/13 01:41:36;;;;;;;9.07;8.17;;;;;23.60;100859.00;;;;2053136;28;20239;-53
2021/08/13 01:42:37;;;;;;;9.52;8.73;;;;;23.60;100857.00;;;;2069876;28;20214;-54
2021/08/13 01:43:40;;;;;;;8.97;8.27;;;;;23.50;100858.00;;;;2063712;28;20486;-55
2021/08/13 01:44:40;;;;;;;9.65;8.75;;;;;23.60;100849.00;;;;2054626;28;20219;-54
2021/08/13 01:45:40;;;;;;;9.03;8.23;;;;;23.50;100864.00;;;;2053073;28;20326;-54
2021/08/13 01:46:42;;;;;;;9.40;8.50;;;;;23.50;100863.00;;;;2052860;28;20223;-53
2021/08/13 01:47:42;;;;;;;9.25;8.35;;;;;23.60;100854.00;;;;2053159;28;20417;-53
2021/08/13 01:48:42;;;;;;;8.73;7.93;;;;;23.60;100860.00;;;;2044293;28;20231;-55
2021/08/13 01:49:44;;;;;;;9.00;8.10;;;;;23.50;100853.00;;;;2063331;28;20298;-53
2021/08/13 01:50:44;;;;;;;9.07;8.18;;;;;23.60;100862.00;;;;2065446;28;20794;-53
2021/08/13 01:51:45;;;;;;;8.67;7.93;;;;;23.50;100865.00;;;;2064583;28;20217;-54
2021/08/13 01:52:46;;;;;;;9.20;8.30;;;;;23.50;100851.00;;;;2060104;28;20203;-54
2021/08/13 01:53:47;;;;;;;8.77;8.07;;;;;23.50;100849.00;;;;2054873;28;20258;-54
2021/08/13 01:54:48;;;;;;;8.90;8.10;;;;;23.50;100852.00;;;;2054509;28;20211;-53
2021/08/13 01:55:49;;;;;;;8.65;7.95;;;;;23.50;100849.00;;;;2065783;28;20777;-54
2021/08/13 01:56:50;;;;;;;8.60;7.80;;;;;23.60;100852.00;;;;2071006;28;20214;-54
2021/08/13 01:57:50;;;;;;;8.60;7.80;;;;;23.50;100856.00;;;;2070616;28;20669;-54
2021/08/13 01:58:50;;;;;;;8.23;7.53;;;;;23.60;100850.00;;;;2071632;28;20280;-54
2021/08/13 01:59:51;;;;;;;9.43;8.50;;;;;23.50;100854.00;;;;2071653;28;20221;-54
2021/08/13 02:00:51;;;;;;;8.40;7.70;;;;;23.50;100861.00;;;;2063032;28;20218;-54
2021/08/13 02:01:52;;;;;;;8.50;7.70;;;;;23.60;100855.00;;;;2071486;28;20293;-54
2021/08/13 02:02:52;;;;;;;9.10;8.30;;;;;23.50;100865.00;;;;2071474;28;20210;-54
2021/08/13 02:03:53;;;;;;;9.20;8.37;;;;;23.50;100854.00;;;;2070692;28;20214;-54
2021/08/13 02:04:53;;;;;;;8.50;7.73;;;;;23.50;100854.00;;;;2063407;28;20225;-54
2021/08/13 02:05:54;;;;;;;8.40;7.60;;;;;23.60;100862.00;;;;2059112;28;20235;-54
2021/08/13 02:06:54;;;;;;;9.03;7.97;;;;;23.60;100860.00;;;;2060945;28;20225;-54
2021/08/13 02:07:54;;;;;;;9.80;8.90;;;;;23.60;100845.00;;;;2063398;28;20230;-54
2021/08/13 02:08:55;;;;;;;8.37;7.67;;;;;23.60;100857.00;;;;2061642;28;20245;-54
2021/08/13 02:09:55;;;;;;;9.07;8.27;;;;;23.50;100864.00;;;;2079565;28;20222;-54
2021/08/13 02:10:56;;;;;;;8.97;8.17;;;;;23.50;100853.00;;;;2062882;28;20210;-53
2021/08/13 02:11:57;;;;;;;8.27;7.53;;;;;23.50;100858.00;;;;2055124;28;20570;-54
2021/08/13 02:12:57;;;;;;;8.30;7.60;;;;;23.50;100855.00;;;;2064307;28;20270;-54
2021/08/13 02:13:57;;;;;;;8.30;7.53;;;;;23.60;100863.00;;;;2065376;28;20692;-54
2021/08/13 02:14:58;;;;;;;9.10;8.30;;;;;23.50;100857.00;;;;2063544;28;20223;-54
2021/08/13 02:16:01;;;;;;;8.80;8.00;;;;;23.50;100869.00;;;;2063469;28;20219;-54
2021/08/13 02:17:02;;;;;;;8.40;7.70;;;;;23.50;100853.00;;;;2063467;28;20229;-54
2021/08/13 02:18:07;;;;;;;8.80;8.00;;;;;23.50;100868.00;;;;2053109;28;20736;-54
2021/08/13 02:19:29;;;;;;;8.00;7.30;;;;;23.50;100863.00;;;;2062321;28;20595;-54
2021/08/13 02:20:29;;;;;;;8.60;7.80;;;;;23.50;100846.00;;;;2063614;28;20245;-54
2021/08/13 02:21:30;;;;;;;8.10;7.30;;;;;23.50;100855.00;;;;2071226;28;20214;-54
2021/08/13 02:22:31;;;;;;;8.00;7.30;;;;;23.50;100850.00;;;;2069746;28;20213;-54
2021/08/13 02:23:31;;;;;;;8.20;7.50;;;;;23.50;100854.00;;;;2058836;28;20403;-53
2021/08/13 02:24:31;;;;;;;8.50;7.80;;;;;23.50;100838.00;;;;2061607;28;20219;-54
2021/08/13 02:25:32;;;;;;;8.07;7.37;;;;;23.50;100849.00;;;;2058954;28;20266;-54
2021/08/13 02:26:32;;;;;;;8.07;7.30;;;;;23.50;100844.00;;;;2062897;28;20211;-54
2021/08/13 02:27:33;;;;;;;7.93;7.23;;;;;23.50;100844.00;;;;2060149;28;20230;-54
2021/08/13 02:28:33;;;;;;;8.37;7.57;;;;;23.50;100843.00;;;;2056200;28;20211;-54
2021/08/13 02:29:33;;;;;;;9.33;8.47;;;;;23.50;100838.00;;;;2058995;28;20265;-53
2021/08/13 02:30:34;;;;;;;8.37;7.57;;;;;23.50;100847.00;;;;2062640;28;20226;-54
2021/08/13 02:31:34;;;;;;;7.63;6.93;;;;;23.50;100837.00;;;;2058907;28;20223;-54
2021/08/13 02:32:35;;;;;;;9.03;7.60;;;;;23.50;100839.00;;;;2063043;28;20225;-54
2021/08/13 02:33:35;;;;;;;8.20;7.50;;;;;23.50;100838.00;;;;2067112;28;20683;-54
2021/08/13 02:34:35;;;;;;;8.37;7.57;;;;;23.50;100853.00;;;;2060252;28;20295;-54
2021/08/13 02:35:36;;;;;;;7.97;7.20;;;;;23.50;100839.00;;;;2059250;28;20214;-54
2021/08/13 02:36:42;;;;;;;8.33;7.57;;;;;23.50;100844.00;;;;2063602;28;20731;-53
2021/08/13 02:37:55;;;;;;;8.40;7.45;;;;;23.50;100844.00;;;;2055921;28;20211;-53
2021/08/13 02:39:10;;;;;;;8.45;7.75;;;;;23.50;100851.00;;;;2069112;28;20202;-54
2021/08/13 02:40:16;;;;;;;8.55;7.75;;;;;23.50;100838.00;;;;2063130;28;20260;-54
2021/08/13 02:41:16;;;;;;;8.40;7.70;;;;;23.50;100846.00;;;;2055220;28;20219;-54
2021/08/13 02:42:39;;;;;;;8.63;7.73;;;;;23.50;100846.00;;;;2067926;28;20221;-53
2021/08/13 02:43:57;;;;;;;8.30;7.60;;;;;23.50;100843.00;;;;2056301;28;20207;-53
2021/08/13 02:44:58;;;;;;;8.45;7.57;;;;;23.50;100850.00;;;;2066075;28;20590;-54
2021/08/13 02:46:01;;;;;;;7.40;6.80;;;;;23.50;100844.00;;;;2063194;28;20290;-55
2021/08/13 02:47:04;;;;;;;8.40;7.60;;;;;23.50;100844.00;;;;2063214;28;20215;-54
2021/08/13 02:48:04;;;;;;;8.18;7.40;;;;;23.50;100839.00;;;;2063996;28;20226;-54
2021/08/13 02:49:05;;;;;;;7.30;6.70;;;;;23.50;100837.00;;;;2071365;28;20237;-54
2021/08/13 02:50:07;;;;;;;8.00;7.30;;;;;23.50;100845.00;;;;2066601;28;20215;-54
2021/08/13 02:51:09;;;;;;;7.25;6.65;;;;;23.50;100834.00;;;;2057099;28;20761;-54
2021/08/13 02:52:09;;;;;;;8.50;7.72;;;;;23.50;100850.00;;;;2065926;28;20635;-54
2021/08/13 02:53:13;;;;;;;8.43;7.73;;;;;23.50;100844.00;;;;2063496;28;20305;-55
2021/08/13 02:54:17;;;;;;;7.95;7.15;;;;;23.50;100848.00;;;;2063230;28;20242;-54
2021/08/13 02:55:21;;;;;;;7.80;7.20;;;;;23.50;100849.00;;;;2068187;28;20221;-54
2021/08/13 02:56:21;;;;;;;8.05;7.35;;;;;23.50;100848.00;;;;2071013;28;20261;-55
2021/08/13 02:57:22;;;;;;;8.10;7.40;;;;;23.50;100849.00;;;;2071233;28;20222;-53
2021/08/13 02:58:24;;;;;;;8.13;7.43;;;;;23.50;100848.00;;;;2071456;28;20222;-55
2021/08/13 02:59:27;;;;;;;8.23;7.53;;;;;23.50;100853.00;;;;2070125;28;20962;-56
2021/08/13 03:00:28;;;;;;;8.10;7.40;;;;;23.50;100847.00;;;;2055161;28;20224;-55
2021/08/13 03:01:30;;;;;;;7.93;7.23;;;;;23.50;100844.00;;;;2057065;28;20630;-56
2021/08/13 03:02:30;;;;;;;8.20;7.20;;;;;23.50;100843.00;;;;2064704;28;20450;-56
2021/08/13 03:03:31;;;;;;;8.20;7.50;;;;;23.50;100839.00;;;;2070100;28;20733;-55
2021/08/13 03:04:31;;;;;;;7.37;6.67;;;;;23.50;100838.00;;;;2071473;28;20218;-54
2021/08/13 03:05:32;;;;;;;7.30;6.70;;;;;23.50;100832.00;;;;2063079;28;20608;-55
2021/08/13 03:06:35;;;;;;;7.63;6.93;;;;;23.50;100828.00;;;;2059508;28;20331;-54
2021/08/13 03:07:36;;;;;;;7.90;7.20;;;;;23.50;100830.00;;;;2064024;28;20230;-54
2021/08/13 03:08:36;;;;;;;8.20;7.50;;;;;23.50;100828.00;;;;2062743;28;20722;-52
2021/08/13 03:09:37;;;;;;;7.73;7.13;;;;;23.50;100835.00;;;;2052364;28;20581;-54
2021/08/13 03:10:38;;;;;;;7.90;6.70;;;;;23.50;100831.00;;;;2040058;29;20268;-54
2021/08/13 03:11:39;;;;;;;7.70;7.00;;;;;23.50;100829.00;;;;2054489;28;20892;-55
2021/08/13 03:12:40;;;;;;;7.65;6.95;;;;;23.50;100831.00;;;;2055078;28;20588;-55
2021/08/13 03:13:40;;;;;;;7.43;6.73;;;;;23.50;100828.00;;;;2054358;28;20359;-55
2021/08/13 03:14:40;;;;;;;7.80;7.10;;;;;23.50;100825.00;;;;2047190;28;20303;-55
2021/08/13 03:15:41;;;;;;;8.03;7.23;;;;;23.50;100833.00;;;;2056885;28;20235;-56
2021/08/13 03:16:41;;;;;;;7.47;6.77;;;;;23.50;100827.00;;;;2070146;28;20221;-55
2021/08/13 03:17:42;;;;;;;8.10;7.40;;;;;23.50;100830.00;;;;2055477;28;20216;-56
2021/08/13 03:18:42;;;;;;;7.20;6.50;;;;;23.50;100829.00;;;;2054781;28;20296;-56
2021/08/13 03:19:42;;;;;;;7.80;7.10;;;;;23.50;100825.00;;;;2067649;28;20718;-56
2021/08/13 03:20:43;;;;;;;7.97;7.27;;;;;23.50;100832.00;;;;2059490;28;20877;-52
2021/08/13 03:21:43;;;;;;;7.67;7.03;;;;;23.50;100833.00;;;;2053155;28;20215;-55
2021/08/13 03:22:43;;;;;;;7.93;7.23;;;;;23.50;100832.00;;;;2055195;28;20227;-56
2021/08/13 03:23:44;;;;;;;9.40;7.23;;;;;23.50;100835.00;;;;2055045;28;20222;-56
2021/08/13 03:24:44;;;;;;;7.90;7.20;;;;;23.50;100834.00;;;;2054276;28;20216;-59
2021/08/13 03:25:44;;;;;;;7.87;7.17;;;;;23.50;100837.00;;;;2058928;28;20218;-56
2021/08/13 03:26:46;;;;;;;8.60;7.70;;;;;23.50;100837.00;;;;2067484;28;20214;-54
2021/08/13 03:27:46;;;;;;;9.13;8.32;;;;;23.50;100837.00;;;;2070492;28;20230;-55
2021/08/13 03:28:47;;;;;;;7.67;7.07;;;;;23.50;100829.00;;;;2063119;28;20257;-56
2021/08/13 03:29:47;;;;;;;9.80;7.40;;;;;23.50;100848.00;;;;2058438;28;20211;-52
2021/08/13 03:30:47;;;;;;;8.30;7.50;;;;;23.50;100848.00;;;;2062246;28;20211;-55
2021/08/13 03:31:48;;;;;;;6.90;6.30;;;;;23.50;100832.00;;;;2067552;28;20683;-51
2021/08/13 03:32:48;;;;;;;8.47;6.83;;;;;23.50;100846.00;;;;2056089;28;20204;-56
2021/08/13 03:33:48;;;;;;;7.33;6.70;;;;;23.50;100837.00;;;;2059764;28;20221;-56
2021/08/13 03:34:49;;;;;;;8.10;7.40;;;;;23.50;100844.00;;;;2054792;28;20219;-56
2021/08/13 03:35:49;;;;;;;7.50;6.80;;;;;23.50;100837.00;;;;2060396;28;20226;-53
2021/08/13 03:36:50;;;;;;;7.30;6.60;;;;;23.50;100845.00;;;;2063962;28;20206;-55
2021/08/13 03:37:50;;;;;;;7.80;7.10;;;;;23.50;100837.00;;;;2062981;28;20298;-56
2021/08/13 03:38:50;;;;;;;9.97;7.20;;;;;23.50;100843.00;;;;2059051;28;20310;-54
2021/08/13 03:39:51;;;;;;;7.63;6.93;;;;;23.50;100850.00;;;;2055787;28;20246;-55
2021/08/13 03:40:51;;;;;;;8.07;7.33;;;;;23.50;100838.00;;;;2058633;28;20243;-53
2021/08/13 03:41:51;;;;;;;7.50;6.80;;;;;23.50;100832.00;;;;2058871;28;20222;-52
2021/08/13 03:42:52;;;;;;;7.70;6.97;;;;;23.50;100837.00;;;;2065543;28;20210;-54
2021/08/13 03:43:52;;;;;;;8.00;7.30;;;;;23.50;100839.00;;;;2056745;28;20684;-56
2021/08/13 03:44:52;;;;;;;7.50;6.80;;;;;23.50;100837.00;;;;2060354;28;20219;-55
2021/08/13 03:45:53;;;;;;;7.23;6.63;;;;;23.50;100832.00;;;;2055283;28;20215;-53
2021/08/13 03:46:53;;;;;;;7.50;6.80;;;;;23.40;100836.00;;;;2059692;28;20230;-55
2021/08/13 03:47:53;;;;;;;7.47;6.73;;;;;23.40;100835.00;;;;2054169;28;20231;-54
2021/08/13 03:48:54;;;;;;;6.77;6.17;;;;;23.50;100833.00;;;;2059534;28;20221;-55
2021/08/13 03:49:54;;;;;;;7.67;6.97;;;;;23.50;100829.00;;;;2059241;28;20572;-53
2021/08/13 03:50:54;;;;;;;7.40;6.70;;;;;23.50;100835.00;;;;2060652;28;20199;-54
2021/08/13 03:51:57;;;;;;;7.23;6.63;;;;;23.50;100837.00;;;;2056252;28;20219;-54
2021/08/13 03:52:57;;;;;;;7.38;6.78;;;;;23.50;100834.00;;;;2058515;28;20219;-54
2021/08/13 03:53:58;;;;;;;7.33;6.73;;;;;23.40;100834.00;;;;2055466;28;20287;-54
2021/08/13 03:54:58;;;;;;;7.60;6.90;;;;;23.50;100835.00;;;;2065930;28;20198;-54
2021/08/13 03:55:58;;;;;;;6.80;6.20;;;;;23.50;100834.00;;;;2061544;28;20210;-54
2021/08/13 03:56:59;;;;;;;9.20;7.13;;;;;23.50;100835.00;;;;2057974;28;20680;-54
2021/08/13 03:57:59;;;;;;;8.97;6.50;;;;;23.50;100831.00;;;;2055435;28;20312;-54
2021/08/13 03:59:00;;;;;;;7.23;6.63;;;;;23.50;100832.00;;;;2055465;28;20805;-54
2021/08/13 04:00:01;;;;;;;7.30;6.60;;;;;23.50;100827.00;;;;2055120;28;20207;-54
2021/08/13 04:01:01;;;;;;;7.10;6.40;;;;;23.50;100831.00;;;;2058777;28;20247;-54
2021/08/13 04:02:02;;;;;;;7.50;6.80;;;;;23.50;100827.00;;;;2059608;28;20210;-55
2021/08/13 04:03:02;;;;;;;7.40;6.80;;;;;23.50;100822.00;;;;2063272;28;20214;-54
2021/08/13 04:04:02;;;;;;;7.73;7.03;;;;;23.50;100825.00;;;;2057762;28;20232;-54
2021/08/13 04:05:04;;;;;;;7.60;6.80;;;;;23.50;100821.00;;;;2066004;28;20289;-54
2021/08/13 04:06:04;;;;;;;7.13;6.50;;;;;23.50;100820.00;;;;2062332;28;20234;-54
2021/08/13 04:07:04;;;;;;;9.03;6.70;;;;;23.40;100824.00;;;;2062320;28;20237;-54
2021/08/13 04:08:05;;;;;;;7.70;7.00;;;;;23.50;100820.00;;;;2071393;28;20218;-55
2021/08/13 04:09:05;;;;;;;7.60;6.80;;;;;23.50;100822.00;;;;2071505;28;20222;-54
2021/08/13 04:10:06;;;;;;;8.37;7.60;;;;;23.50;100827.00;;;;2066260;28;20606;-54
2021/08/13 04:11:06;;;;;;;7.53;6.90;;;;;23.50;100822.00;;;;2062605;28;20219;-54
2021/08/13 04:12:07;;;;;;;7.50;6.80;;;;;23.50;100825.00;;;;2062981;28;20215;-54
2021/08/13 04:13:07;;;;;;;7.20;6.37;;;;;23.50;100834.00;;;;2063448;28;20222;-54
2021/08/13 04:14:08;;;;;;;7.60;6.90;;;;;23.50;100826.00;;;;2063430;28;20230;-54
2021/08/13 04:15:08;;;;;;;7.53;6.87;;;;;23.50;100823.00;;;;2063290;28;20218;-54
2021/08/13 04:16:09;;;;;;;7.10;6.50;;;;;23.40;100832.00;;;;2071050;28;20218;-54
2021/08/13 04:17:09;;;;;;;7.70;7.10;;;;;23.50;100830.00;;;;2071160;28;20292;-54
2021/08/13 04:18:09;;;;;;;7.47;6.43;;;;;23.50;100831.00;;;;2063408;28;20231;-54
2021/08/13 04:19:09;;;;;;;7.47;6.77;;;;;23.50;100829.00;;;;2068715;28;20230;-54
2021/08/13 04:20:10;;;;;;;7.37;6.73;;;;;23.40;100825.00;;;;2066559;28;20262;-54
2021/08/13 04:21:11;;;;;;;7.77;7.07;;;;;23.50;100827.00;;;;2063126;28;20227;-54
2021/08/13 04:22:12;;;;;;;7.22;6.63;;;;;23.40;100821.00;;;;2063368;28;20239;-55
2021/08/13 04:23:12;;;;;;;7.13;6.53;;;;;23.40;100828.00;;;;2071368;28;20699;-54
2021/08/13 04:24:12;;;;;;;7.50;6.90;;;;;23.40;100821.00;;;;2068411;28;20696;-54
2021/08/13 04:25:13;;;;;;;7.00;6.40;;;;;23.40;100823.00;;;;2065636;28;20230;-54
2021/08/13 04:26:13;;;;;;;7.67;6.87;;;;;23.40;100819.00;;;;2063285;28;20233;-54
2021/08/13 04:27:14;;;;;;;7.20;6.60;;;;;23.50;100817.00;;;;2066736;28;20226;-54
2021/08/13 04:28:14;;;;;;;7.50;6.90;;;;;23.40;100819.00;;;;2066987;28;20450;-53
2021/08/13 04:29:15;;;;;;;7.20;6.60;;;;;23.50;100815.00;;;;2070887;28;20211;-54
2021/08/13 04:30:15;;;;;;;8.00;7.20;;;;;23.30;100816.00;;;;2062938;28;20310;-53
2021/08/13 04:31:15;;;;;;;7.13;6.53;;;;;23.40;100817.00;;;;2064312;28;20302;-57
2021/08/13 04:32:16;;;;;;;7.73;6.90;;;;;23.40;100812.00;;;;2071025;28;20679;-55
2021/08/13 04:33:16;;;;;;;7.37;6.67;;;;;23.40;100816.00;;;;2071146;28;20575;-54
2021/08/13 04:34:16;;;;;;;7.97;7.23;;;;;23.40;100811.00;;;;2071189;28;20834;-55
2021/08/13 04:35:17;;;;;;;6.73;6.13;;;;;23.40;100820.00;;;;2071169;28;20210;-55
2021/08/13 04:36:17;;;;;;;7.60;6.90;;;;;23.40;100828.00;;;;2063641;28;20219;-55
2021/08/13 04:37:17;;;;;;;7.80;7.00;;;;;23.40;100821.00;;;;2065893;28;20215;-57
2021/08/13 04:38:18;;;;;;;7.53;6.90;;;;;23.40;100820.00;;;;2064710;28;20456;-56
2021/08/13 04:39:18;;;;;;;8.37;7.30;;;;;23.40;100825.00;;;;2064457;28;20223;-56
2021/08/13 04:40:19;;;;;;;7.97;7.17;;;;;23.40;100826.00;;;;2062691;28;20215;-56
2021/08/13 04:41:19;;;;;;;7.50;6.70;;;;;23.40;100823.00;;;;2063063;28;20273;-56
2021/08/13 04:42:19;;;;;;;6.77;6.17;;;;;23.40;100826.00;;;;2062520;28;20324;-56
2021/08/13 04:43:20;;;;;;;7.07;6.47;;;;;23.40;100825.00;;;;2070758;28;20951;-56
2021/08/13 04:44:20;;;;;;;8.20;7.50;;;;;23.40;100834.00;;;;2071041;28;20730;-56
2021/08/13 04:45:20;;;;;;;6.73;6.13;;;;;23.40;100830.00;;;;2071295;28;20224;-55
2021/08/13 04:46:21;;;;;;;7.57;6.87;;;;;23.40;100835.00;;;;2071287;28;20218;-55
2021/08/13 04:47:21;;;;;;;7.30;6.50;;;;;23.40;100829.00;;;;2065441;28;20769;-56
2021/08/13 04:48:22;;;;;;;7.30;6.70;;;;;23.40;100822.00;;;;2063304;28;20284;-57
2021/08/13 04:49:22;;;;;;;7.23;6.63;;;;;23.40;100828.00;;;;2063061;28;20221;-53
2021/08/13 04:50:22;;;;;;;7.17;6.57;;;;;23.40;100826.00;;;;2061934;28;20301;-52
2021/08/13 04:51:23;;;;;;;7.00;6.40;;;;;23.40;100822.00;;;;2066367;28;20290;-56
2021/08/13 04:52:23;;;;;;;7.03;6.40;;;;;23.40;100820.00;;;;2065506;28;20235;-57
2021/08/13 04:53:23;;;;;;;6.97;6.33;;;;;23.50;100814.00;;;;2065306;28;20207;-56
2021/08/13 04:54:24;;;;;;;7.17;6.47;;;;;23.50;100822.00;;;;2062943;28;20576;-56
2021/08/13 04:55:25;;;;;;;7.00;6.40;;;;;23.40;100818.00;;;;2062656;28;20219;-53
2021/08/13 04:56:25;;;;;;;6.40;5.80;;;;;23.40;100811.00;;;;2062784;28;20218;-56
2021/08/13 04:57:26;;;;;;;7.43;6.83;;;;;23.40;100812.00;;;;2063074;28;20457;-56
2021/08/13 04:58:26;;;;;;;6.97;6.30;;;;;23.40;100813.00;;;;2062849;28;20230;-56
2021/08/13 04:59:27;;;;;;;6.80;6.20;;;;;23.40;100811.00;;;;2062948;28;20229;-55
2021/08/13 05:00:27;;;;;;;7.63;6.77;;;;;23.40;100811.00;;;;2059716;28;20203;-56
2021/08/13 05:01:27;;;;;;;6.80;6.20;;;;;23.40;100815.00;;;;2062934;28;20215;-56